createdAt,value
2017-09-27T00:01:12.392Z,30.57
2017-09-27T00:03:39.956Z,33.87
2017-09-27T00:06:08.284Z,37.37
2017-09-27T00:08:36.418Z,33.00
2017-09-27T00:11:03.969Z,33.00
2017-09-27T00:13:31.507Z,27.13
2017-09-27T00:15:59.052Z,29.37
2017-09-27T00:18:27.357Z,30.83
2017-09-27T00:20:54.908Z,31.60
2017-09-27T00:23:22.466Z,32.40
2017-09-27T00:25:50.037Z,37.60
2017-09-27T00:28:17.572Z,39.40
2017-09-27T00:30:45.126Z,39.67
2017-09-27T00:33:12.667Z,44.40
2017-09-27T00:35:40.989Z,45.77
2017-09-27T00:38:08.547Z,39.77
2017-09-27T00:40:36.081Z,46.17
2017-09-27T00:43:03.623Z,40.77
2017-09-27T00:45:31.920Z,44.33
2017-09-27T00:47:59.487Z,32.73
2017-09-27T00:50:27.034Z,28.03
2017-09-27T00:52:54.569Z,27.73
2017-09-27T00:55:22.113Z,30.53
2017-09-27T00:57:49.667Z,32.33
2017-09-27T01:00:17.228Z,27.07
2017-09-27T01:02:44.779Z,25.53
2017-09-27T01:05:12.295Z,27.43
2017-09-27T01:07:39.850Z,28.10
2017-09-27T01:10:08.226Z,28.93
2017-09-27T01:12:35.789Z,30.90
2017-09-27T01:15:03.344Z,34.57
2017-09-27T01:17:30.920Z,31.17
2017-09-27T01:19:58.522Z,30.20
2017-09-27T01:22:26.060Z,32.93
2017-09-27T01:24:53.609Z,33.23
2017-09-27T01:27:21.137Z,26.87
2017-09-27T01:29:49.056Z,31.80
2017-09-27T01:32:16.587Z,26.53
2017-09-27T01:34:44.122Z,27.47
2017-09-27T01:37:11.695Z,25.00
2017-09-27T01:39:39.241Z,27.03
2017-09-27T01:42:06.836Z,53.47
2017-09-27T01:44:34.358Z,30.93
2017-09-27T01:47:01.887Z,33.80
2017-09-27T01:49:29.443Z,31.17
2017-09-27T01:51:57.580Z,58.57
2017-09-27T01:54:25.122Z,47.90
2017-09-27T01:56:52.673Z,33.03
2017-09-27T01:59:20.228Z,33.90
2017-09-27T02:01:47.832Z,32.67
2017-09-27T02:04:15.367Z,33.10
2017-09-27T02:06:42.916Z,27.37
2017-09-27T02:09:10.469Z,32.40
2017-09-27T02:11:38.012Z,28.47
2017-09-27T02:14:06.308Z,31.53
2017-09-27T02:16:33.855Z,44.07
2017-09-27T02:19:01.403Z,39.53
2017-09-27T02:21:29.718Z,45.73
2017-09-27T02:23:57.279Z,51.07
2017-09-27T02:26:24.817Z,47.37
2017-09-27T02:28:52.362Z,102.27
2017-09-27T02:31:19.904Z,143.47
2017-09-27T02:33:47.474Z,116.87
2017-09-27T02:36:15.056Z,116.23
2017-09-27T02:38:42.605Z,96.80
2017-09-27T02:41:10.190Z,109.63
2017-09-27T02:43:37.733Z,86.07
2017-09-27T02:46:05.302Z,60.73
2017-09-27T02:48:32.847Z,133.07
2017-09-27T02:51:00.397Z,69.13
2017-09-27T02:53:27.936Z,99.77
2017-09-27T02:55:55.490Z,57.83
2017-09-27T02:58:23.023Z,73.47
2017-09-27T03:00:50.565Z,76.40
2017-09-27T03:03:18.148Z,88.57
2017-09-27T03:05:45.706Z,68.80
2017-09-27T03:08:13.244Z,107.13
2017-09-27T03:10:40.769Z,106.90
2017-09-27T03:13:08.339Z,110.73
2017-09-27T03:15:35.890Z,51.43
2017-09-27T03:18:03.464Z,75.23
2017-09-27T03:20:31.027Z,51.67
2017-09-27T03:22:58.549Z,40.83
2017-09-27T03:25:26.101Z,64.33
2017-09-27T03:27:53.635Z,78.83
2017-09-27T03:30:21.330Z,47.93
2017-09-27T03:32:49.620Z,49.00
2017-09-27T03:35:17.481Z,71.70
2017-09-27T03:37:45.031Z,55.10
2017-09-27T03:40:13.352Z,71.93
2017-09-27T03:42:40.912Z,59.70
2017-09-27T03:45:08.492Z,40.27
2017-09-27T03:47:36.049Z,41.80
2017-09-27T03:50:03.620Z,57.30
2017-09-27T03:52:31.583Z,51.90
2017-09-27T03:54:59.127Z,123.00
2017-09-27T03:57:26.656Z,55.17
2017-09-27T03:59:54.240Z,64.50
2017-09-27T04:02:21.781Z,88.57
2017-09-27T04:04:49.353Z,99.37
2017-09-27T04:07:16.894Z,130.50
2017-09-27T04:09:44.462Z,40.13
2017-09-27T04:12:11.994Z,52.10
2017-09-27T04:14:39.535Z,90.10
2017-09-27T04:17:07.086Z,65.93
2017-09-27T04:19:34.618Z,45.00
2017-09-27T04:22:02.175Z,37.07
2017-09-27T04:24:29.699Z,44.40
2017-09-27T04:26:57.975Z,37.90
2017-09-27T04:29:25.532Z,37.40
2017-09-27T04:31:53.073Z,60.20
2017-09-27T04:34:20.720Z,66.90
2017-09-27T04:36:48.293Z,44.23
2017-09-27T04:39:15.898Z,44.73
2017-09-27T04:41:43.459Z,41.23
2017-09-27T04:44:11.011Z,45.47
2017-09-27T04:46:38.556Z,52.73
2017-09-27T04:49:06.093Z,45.60
2017-09-27T04:51:33.646Z,38.47
2017-09-27T04:54:01.182Z,61.00
2017-09-27T04:56:28.720Z,92.93
2017-09-27T04:58:56.347Z,79.70
2017-09-27T05:01:23.908Z,82.77
2017-09-27T05:03:51.482Z,53.23
2017-09-27T05:06:19.013Z,84.37
2017-09-27T05:08:47.345Z,51.03
2017-09-27T05:11:14.858Z,52.13
2017-09-27T05:13:42.421Z,69.10
2017-09-27T05:16:09.970Z,77.17
2017-09-27T05:18:37.547Z,84.73
2017-09-27T05:21:05.105Z,71.33
2017-09-27T05:23:32.652Z,51.93
2017-09-27T05:26:01.005Z,39.97
2017-09-27T05:28:28.547Z,74.10
2017-09-27T05:30:56.494Z,93.03
2017-09-27T05:33:24.088Z,104.67
2017-09-27T05:35:52.567Z,38.50
2017-09-27T05:38:20.216Z,75.27
2017-09-27T05:40:47.756Z,45.40
2017-09-27T05:43:16.064Z,73.73
2017-09-27T05:45:43.592Z,51.87
2017-09-27T05:48:13.300Z,73.10
2017-09-27T05:50:40.860Z,68.03
2017-09-27T05:53:08.433Z,103.90
2017-09-27T05:55:36.051Z,67.90
2017-09-27T05:58:03.667Z,137.10
2017-09-27T06:00:31.224Z,76.80
2017-09-27T06:02:58.772Z,137.10
2017-09-27T06:05:26.326Z,41.03
2017-09-27T06:07:53.916Z,38.03
2017-09-27T06:10:21.461Z,52.70
2017-09-27T06:12:49.057Z,40.90
2017-09-27T06:15:16.625Z,38.03
2017-09-27T06:17:44.231Z,53.07
2017-09-27T06:20:11.785Z,76.43
2017-09-27T06:22:39.355Z,81.27
2017-09-27T06:25:07.316Z,109.77
2017-09-27T06:27:34.859Z,70.07
2017-09-27T06:30:02.402Z,36.07
2017-09-27T06:32:30.007Z,103.13
2017-09-27T06:34:57.543Z,72.20
2017-09-27T06:37:25.120Z,63.43
2017-09-27T06:39:52.660Z,68.37
2017-09-27T06:42:20.195Z,196.23
2017-09-27T06:44:47.743Z,170.50
2017-09-27T06:47:15.303Z,117.20
2017-09-27T06:49:42.864Z,51.87
2017-09-27T06:52:10.409Z,56.53
2017-09-27T06:54:38.043Z,50.13
2017-09-27T06:57:05.648Z,75.53
2017-09-27T06:59:33.538Z,76.67
2017-09-27T07:02:01.842Z,94.20
2017-09-27T07:04:29.375Z,107.47
2017-09-27T07:06:57.019Z,80.50
2017-09-27T07:09:24.574Z,120.33
2017-09-27T07:11:52.122Z,81.87
2017-09-27T07:14:19.701Z,44.60
2017-09-27T07:16:47.245Z,59.80
2017-09-27T07:19:14.794Z,87.83
2017-09-27T07:21:43.106Z,41.77
2017-09-27T07:24:10.648Z,66.67
2017-09-27T07:26:38.183Z,59.27
2017-09-27T07:29:06.505Z,61.67
2017-09-27T07:31:34.033Z,80.40
2017-09-27T07:34:01.597Z,39.13
2017-09-27T07:36:29.135Z,59.33
2017-09-27T07:38:56.699Z,74.77
2017-09-27T07:41:25.051Z,67.70
2017-09-27T07:43:52.588Z,44.77
2017-09-27T07:46:20.133Z,23.33
2017-09-27T07:48:47.672Z,57.93
2017-09-27T07:51:15.660Z,20.83
2017-09-27T07:53:43.221Z,36.50
2017-09-27T07:56:10.794Z,20.83
2017-09-27T07:58:38.358Z,42.03
2017-09-27T08:01:05.890Z,47.73
2017-09-27T08:03:33.435Z,21.17
2017-09-27T08:06:00.995Z,27.00
2017-09-27T08:08:28.578Z,28.33
2017-09-27T08:10:56.154Z,15.03
2017-09-27T08:13:23.689Z,34.00
2017-09-27T08:15:51.256Z,16.57
2017-09-27T08:18:18.829Z,34.33
2017-09-27T08:20:46.434Z,24.10
2017-09-27T08:23:14.034Z,26.57
2017-09-27T08:25:41.876Z,21.73
2017-09-27T08:28:09.438Z,34.97
2017-09-27T08:30:36.984Z,45.93
2017-09-27T08:33:05.316Z,30.23
2017-09-27T08:35:32.894Z,26.40
2017-09-27T08:38:01.574Z,51.97
2017-09-27T08:40:29.162Z,27.90
2017-09-27T08:42:56.723Z,36.03
2017-09-27T08:45:25.027Z,25.13
2017-09-27T08:47:52.574Z,25.03
2017-09-27T08:50:20.378Z,33.60
2017-09-27T08:52:47.948Z,27.70
2017-09-27T08:55:15.512Z,24.83
2017-09-27T08:57:43.086Z,24.47
2017-09-27T09:00:11.442Z,21.93
2017-09-27T09:02:39.035Z,19.93
2017-09-27T09:05:07.373Z,23.60
2017-09-27T09:07:34.928Z,21.67
2017-09-27T09:10:02.510Z,20.13
2017-09-27T09:12:30.121Z,21.30
2017-09-27T09:14:57.679Z,20.97
2017-09-27T09:17:25.201Z,18.77
2017-09-27T09:19:53.536Z,17.63
2017-09-27T09:22:21.078Z,20.40
2017-09-27T09:24:48.987Z,16.47
2017-09-27T09:27:16.618Z,16.20
2017-09-27T09:29:44.150Z,18.13
2017-09-27T09:32:11.706Z,12.47
2017-09-27T09:34:40.007Z,15.50
2017-09-27T09:37:07.545Z,16.77
2017-09-27T09:39:35.103Z,19.60
2017-09-27T09:42:03.002Z,16.80
2017-09-27T09:44:30.556Z,19.33
2017-09-27T09:46:58.124Z,16.00
2017-09-27T09:49:25.667Z,15.50
2017-09-27T09:51:53.221Z,16.63
2017-09-27T09:54:20.766Z,17.13
2017-09-27T09:56:48.305Z,19.23
2017-09-27T09:59:16.243Z,16.60
2017-09-27T10:01:43.761Z,19.33
2017-09-27T10:04:11.322Z,20.53
2017-09-27T10:06:38.924Z,21.33
2017-09-27T10:09:06.464Z,24.50
2017-09-27T10:11:34.042Z,20.40
2017-09-27T10:14:01.588Z,22.70
2017-09-27T10:16:29.145Z,26.03
2017-09-27T10:18:56.709Z,22.97
2017-09-27T10:21:24.249Z,24.50
2017-09-27T10:23:51.797Z,25.43
2017-09-27T10:26:19.351Z,24.80
2017-09-27T10:28:46.891Z,23.87
2017-09-27T10:31:14.450Z,22.90
2017-09-27T10:33:42.061Z,25.67
2017-09-27T10:36:09.614Z,23.40
2017-09-27T10:38:37.208Z,25.77
2017-09-27T10:41:04.789Z,24.50
2017-09-27T10:43:33.103Z,25.33
2017-09-27T10:46:00.677Z,24.93
2017-09-27T10:48:28.218Z,24.80
2017-09-27T10:50:55.858Z,25.90
2017-09-27T10:53:23.391Z,22.10
2017-09-27T10:55:50.938Z,25.27
2017-09-27T10:58:18.492Z,25.40
2017-09-27T11:00:46.018Z,21.67
2017-09-27T11:03:13.582Z,23.20
2017-09-27T11:05:41.156Z,21.77
2017-09-27T11:08:08.984Z,18.60
2017-09-27T11:10:36.520Z,19.93
2017-09-27T11:13:04.845Z,22.10
2017-09-27T11:15:32.403Z,21.97
2017-09-27T11:18:00.018Z,18.87
2017-09-27T11:20:27.597Z,18.80
2017-09-27T11:22:55.135Z,16.30
2017-09-27T11:25:23.473Z,17.50
2017-09-27T11:27:50.998Z,15.40
2017-09-27T11:30:18.572Z,17.10
2017-09-27T11:32:46.216Z,17.67
2017-09-27T11:35:14.899Z,17.63
2017-09-27T11:37:42.495Z,23.70
2017-09-27T11:40:10.037Z,15.37
2017-09-27T11:42:37.612Z,18.10
2017-09-27T11:45:05.164Z,16.07
2017-09-27T11:47:32.727Z,16.97
2017-09-27T11:50:00.339Z,20.33
2017-09-27T11:52:28.675Z,15.37
2017-09-27T11:54:56.296Z,19.87
2017-09-27T11:57:23.834Z,17.13
2017-09-27T11:59:52.160Z,16.97
2017-09-27T12:02:19.723Z,16.67
2017-09-27T12:04:47.281Z,17.37
2017-09-27T12:07:14.867Z,16.87
2017-09-27T12:09:42.411Z,16.10
2017-09-27T12:12:10.372Z,18.30
2017-09-27T12:14:37.920Z,17.30
2017-09-27T12:17:05.477Z,19.63
2017-09-27T12:19:33.038Z,18.13
2017-09-27T12:22:00.570Z,17.87
2017-09-27T12:24:28.156Z,15.20
2017-09-27T12:26:55.703Z,17.00
2017-09-27T12:29:23.568Z,16.27
2017-09-27T12:31:51.096Z,14.60
2017-09-27T12:34:19.392Z,14.80
2017-09-27T12:36:46.970Z,19.77
2017-09-27T12:39:14.488Z,15.43
2017-09-27T12:41:42.795Z,13.13
2017-09-27T12:44:10.371Z,13.30
2017-09-27T12:46:38.274Z,14.87
2017-09-27T12:49:05.815Z,12.43
2017-09-27T12:51:33.353Z,12.77
2017-09-27T12:54:00.923Z,12.93
2017-09-27T12:56:28.474Z,14.87
2017-09-27T12:58:56.032Z,24.20
2017-09-27T13:01:23.670Z,13.80
2017-09-27T13:03:51.209Z,13.20
2017-09-27T13:06:19.558Z,15.23
2017-09-27T13:08:47.141Z,15.93
2017-09-27T13:11:14.699Z,16.53
2017-09-27T13:13:43.059Z,16.17
2017-09-27T13:16:10.630Z,13.80
2017-09-27T13:18:38.202Z,14.60
2017-09-27T13:21:06.541Z,16.77
2017-09-27T13:23:34.109Z,19.47
2017-09-27T13:26:01.660Z,14.20
2017-09-27T13:28:29.229Z,13.63
2017-09-27T13:30:56.793Z,13.33
2017-09-27T13:33:24.357Z,13.57
2017-09-27T13:35:51.910Z,15.40
2017-09-27T13:38:19.468Z,15.57
2017-09-27T13:40:47.028Z,12.67
2017-09-27T13:43:14.609Z,13.27
2017-09-27T13:45:42.972Z,12.47
2017-09-27T13:48:10.536Z,12.17
2017-09-27T13:50:38.080Z,11.60
2017-09-27T13:53:05.637Z,12.70
2017-09-27T13:55:33.195Z,12.20
2017-09-27T13:58:00.785Z,9.60
2017-09-27T14:00:29.097Z,9.60
2017-09-27T14:02:56.638Z,9.17
2017-09-27T14:05:24.974Z,9.33
2017-09-27T14:07:52.537Z,9.23
2017-09-27T14:10:20.094Z,9.10
2017-09-27T14:12:47.623Z,9.47
2017-09-27T14:15:15.212Z,8.90
2017-09-27T14:17:42.763Z,8.87
2017-09-27T14:20:10.320Z,7.70
2017-09-27T14:22:37.892Z,8.70
2017-09-27T14:25:05.452Z,8.63
2017-09-27T14:27:33.030Z,8.20
2017-09-27T14:30:00.607Z,8.73
2017-09-27T14:32:28.951Z,8.53
2017-09-27T14:34:56.506Z,8.87
2017-09-27T14:37:24.064Z,9.67
2017-09-27T14:39:51.611Z,10.27
2017-09-27T14:42:19.190Z,12.40
2017-09-27T14:44:47.052Z,9.13
2017-09-27T14:47:14.600Z,8.97
2017-09-27T14:49:42.147Z,11.37
2017-09-27T14:52:09.696Z,10.00
2017-09-27T14:54:37.291Z,9.23
2017-09-27T14:57:04.842Z,8.30
2017-09-27T14:59:32.469Z,10.20
2017-09-27T15:02:00.059Z,11.23
2017-09-27T15:04:27.623Z,11.50
2017-09-27T15:06:55.174Z,10.60
2017-09-27T15:09:22.738Z,8.40
2017-09-27T15:11:50.298Z,7.93
2017-09-27T15:14:17.936Z,8.40
2017-09-27T15:16:45.506Z,6.90
2017-09-27T15:19:13.079Z,7.30
2017-09-27T15:21:40.639Z,7.70
2017-09-27T15:24:08.251Z,7.13
2017-09-27T15:26:36.576Z,6.80
2017-09-27T15:29:04.140Z,8.27
2017-09-27T15:31:31.698Z,8.60
2017-09-27T15:33:59.233Z,8.83
2017-09-27T15:36:26.803Z,7.60
2017-09-27T15:38:54.344Z,8.40
2017-09-27T15:41:21.925Z,7.93
2017-09-27T15:43:49.484Z,7.50
2017-09-27T15:46:17.079Z,10.37
2017-09-27T15:48:44.637Z,9.63
2017-09-27T15:51:12.179Z,8.20
2017-09-27T15:53:39.740Z,8.57
2017-09-27T15:56:07.280Z,8.77
2017-09-27T15:58:34.845Z,7.93
2017-09-27T16:01:02.437Z,9.57
2017-09-27T16:03:30.765Z,10.23
2017-09-27T16:05:58.359Z,9.43
2017-09-27T16:08:25.941Z,9.60
2017-09-27T16:10:53.524Z,8.83
2017-09-27T16:13:21.065Z,9.70
2017-09-27T16:15:48.629Z,9.50
2017-09-27T16:18:16.218Z,9.40
2017-09-27T16:20:43.759Z,9.23
2017-09-27T16:23:11.317Z,9.83
2017-09-27T16:25:38.845Z,9.43
2017-09-27T16:28:07.174Z,9.83
2017-09-27T16:30:34.750Z,9.10
2017-09-27T16:33:02.327Z,10.33
2017-09-27T16:35:29.904Z,10.73
2017-09-27T16:37:57.461Z,13.00
2017-09-27T16:40:25.031Z,10.83
2017-09-27T16:42:52.601Z,12.50
2017-09-27T16:45:20.187Z,13.00
2017-09-27T16:47:47.751Z,13.40
2017-09-27T16:50:16.085Z,12.47
2017-09-27T16:52:43.650Z,10.90
2017-09-27T16:55:11.191Z,11.60
2017-09-27T16:57:38.779Z,12.83
2017-09-27T17:00:09.500Z,10.60
2017-09-27T17:02:37.060Z,12.20
2017-09-27T17:05:04.624Z,13.03
2017-09-27T17:07:33.324Z,12.73
2017-09-27T17:10:00.900Z,15.63
2017-09-27T17:12:28.579Z,11.77
2017-09-27T17:14:56.448Z,14.40
2017-09-27T17:17:26.055Z,15.23
2017-09-27T17:19:54.003Z,16.23
2017-09-27T17:22:21.589Z,15.53
2017-09-27T17:24:50.507Z,11.83
2017-09-27T17:27:19.559Z,14.60
2017-09-27T17:29:47.128Z,17.33
2017-09-27T17:32:14.699Z,18.97
2017-09-27T17:34:42.243Z,13.83
2017-09-27T17:37:09.821Z,18.10
2017-09-27T17:39:37.384Z,15.70
2017-09-27T17:42:04.925Z,16.40
2017-09-27T17:44:32.482Z,17.80
2017-09-27T17:47:00.086Z,15.40
2017-09-27T17:49:28.554Z,16.97
2017-09-27T17:51:56.141Z,18.07
2017-09-27T17:54:23.707Z,16.13
2017-09-27T17:56:51.287Z,17.87
2017-09-27T17:59:18.857Z,18.80
2017-09-27T18:01:46.430Z,19.00
2017-09-27T18:04:21.984Z,17.40
2017-09-27T18:07:08.352Z,19.87
2017-09-27T18:09:41.507Z,23.73
2017-09-27T18:12:14.884Z,21.70
2017-09-27T18:14:48.160Z,23.70
2017-09-27T18:17:31.583Z,23.60
2017-09-27T18:20:01.723Z,27.50
2017-09-27T18:22:29.500Z,20.33
2017-09-27T18:24:59.372Z,22.33
2017-09-27T18:27:26.943Z,24.33
2017-09-27T18:29:54.969Z,23.07
2017-09-27T18:32:23.479Z,25.93
2017-09-27T18:34:52.605Z,23.97
2017-09-27T18:37:20.956Z,25.57
2017-09-27T18:39:48.571Z,26.00
2017-09-27T18:42:16.906Z,23.60
2017-09-27T18:44:44.534Z,25.00
2017-09-27T18:48:03.573Z,28.17
2017-09-27T18:50:31.375Z,25.30
2017-09-27T18:53:00.368Z,24.00
2017-09-27T18:55:27.935Z,24.30
2017-09-27T18:57:55.572Z,29.67
2017-09-27T19:00:24.650Z,23.20
2017-09-27T19:02:52.267Z,26.97
2017-09-27T19:05:19.946Z,28.60
2017-09-27T19:07:47.558Z,26.17
2017-09-27T19:10:15.115Z,25.30
2017-09-27T19:12:42.688Z,29.50
2017-09-27T19:15:10.770Z,24.93
2017-09-27T19:17:38.309Z,28.00
2017-09-27T19:20:05.996Z,26.07
2017-09-27T19:22:33.632Z,25.90
2017-09-27T19:25:01.199Z,26.47
2017-09-27T19:27:29.233Z,24.93
2017-09-27T19:29:56.844Z,25.00
2017-09-27T19:32:24.402Z,28.80
2017-09-27T19:34:52.004Z,25.10
2017-09-27T19:37:20.321Z,22.10
2017-09-27T19:39:47.941Z,24.13
2017-09-27T19:42:15.512Z,21.63
2017-09-27T19:44:43.062Z,24.13
2017-09-27T19:47:10.687Z,25.70
2017-09-27T19:49:38.295Z,24.33
2017-09-27T19:52:05.905Z,22.23
2017-09-27T19:54:33.480Z,21.67
2017-09-27T19:57:01.098Z,24.67
2017-09-27T19:59:28.697Z,30.73
2017-09-27T20:01:56.284Z,27.03
2017-09-27T20:04:24.617Z,23.70
2017-09-27T20:06:52.157Z,26.60
2017-09-27T20:09:19.756Z,23.83
2017-09-27T20:11:47.339Z,30.00
2017-09-27T20:14:15.703Z,28.60
2017-09-27T20:16:44.109Z,26.27
2017-09-27T20:19:11.692Z,25.30
2017-09-27T20:21:39.277Z,24.93
2017-09-27T20:24:06.805Z,23.53
2017-09-27T20:26:34.391Z,23.80
2017-09-27T20:29:01.953Z,22.40
2017-09-27T20:31:29.532Z,25.43
2017-09-27T20:33:58.194Z,26.30
2017-09-27T20:36:25.815Z,22.00
2017-09-27T20:38:53.651Z,24.03
2017-09-27T20:41:22.024Z,27.37
2017-09-27T20:43:49.844Z,24.03
2017-09-27T20:46:17.439Z,25.33
2017-09-27T20:48:45.032Z,28.63
2017-09-27T20:51:13.393Z,23.60
2017-09-27T20:53:41.798Z,27.33
2017-09-27T20:56:09.365Z,28.63
2017-09-27T20:58:36.926Z,30.13
2017-09-27T21:01:04.527Z,25.37
2017-09-27T21:03:32.183Z,24.63
2017-09-27T21:05:59.748Z,27.93
2017-09-27T21:08:27.309Z,28.23
2017-09-27T21:10:54.847Z,30.37
2017-09-27T21:13:22.414Z,27.60
2017-09-27T21:15:49.981Z,24.50
2017-09-27T21:18:17.557Z,31.87
2017-09-27T21:20:45.140Z,29.20
2017-09-27T21:23:13.452Z,26.37
2017-09-27T21:25:41.016Z,25.60
2017-09-27T21:28:08.593Z,25.57
2017-09-27T21:30:36.134Z,26.40
2017-09-27T21:33:03.723Z,25.17
2017-09-27T21:35:31.248Z,25.77
2017-09-27T21:37:58.839Z,27.33
2017-09-27T21:40:26.387Z,25.67
2017-09-27T21:42:53.950Z,22.43
2017-09-27T21:45:21.520Z,25.17
2017-09-27T21:47:49.070Z,22.07
2017-09-27T21:50:16.641Z,19.87
2017-09-27T21:52:44.179Z,20.57
2017-09-27T21:55:11.762Z,21.80
2017-09-27T21:57:39.288Z,22.00
2017-09-27T22:00:07.123Z,24.07
2017-09-27T22:02:34.664Z,25.90
2017-09-27T22:05:03.148Z,25.53
2017-09-27T22:07:31.572Z,23.93
2017-09-27T22:09:59.126Z,25.13
2017-09-27T22:12:26.694Z,31.60
2017-09-27T22:14:54.240Z,24.20
2017-09-27T22:17:21.784Z,28.03
2017-09-27T22:19:49.361Z,25.70
2017-09-27T22:22:16.896Z,26.50
2017-09-27T22:24:44.472Z,28.70
2017-09-27T22:27:12.030Z,30.40
2017-09-27T22:29:39.593Z,26.70
2017-09-27T22:32:07.157Z,29.17
2017-09-27T22:34:34.724Z,25.63
2017-09-27T22:37:02.276Z,30.33
2017-09-27T22:39:29.839Z,26.30
2017-09-27T22:41:57.733Z,26.83
2017-09-27T22:44:25.283Z,25.87
2017-09-27T22:46:52.815Z,26.33
2017-09-27T22:49:20.375Z,27.67
2017-09-27T22:51:47.939Z,27.67
2017-09-27T22:54:15.532Z,35.30
2017-09-27T22:56:43.092Z,28.53
2017-09-27T22:59:10.646Z,24.90
2017-09-27T23:01:38.188Z,26.83
2017-09-27T23:04:05.778Z,25.03
2017-09-27T23:06:33.373Z,27.40
2017-09-27T23:09:01.707Z,23.00
2017-09-27T23:11:29.265Z,27.47
2017-09-27T23:13:56.970Z,24.07
2017-09-27T23:16:24.524Z,27.37
2017-09-27T23:18:52.987Z,26.87
2017-09-27T23:21:20.529Z,25.70
2017-09-27T23:23:48.105Z,30.47
2017-09-27T23:26:15.713Z,32.63
2017-09-27T23:28:43.308Z,34.00
2017-09-27T23:31:10.870Z,28.83
2017-09-27T23:33:38.432Z,29.60
2017-09-27T23:36:05.997Z,30.63
2017-09-27T23:38:33.557Z,33.77
2017-09-27T23:41:01.150Z,29.77
2017-09-27T23:43:28.720Z,32.90
2017-09-27T23:45:56.638Z,27.37
2017-09-27T23:48:24.174Z,34.20
2017-09-27T23:50:51.716Z,29.87
2017-09-27T23:53:19.311Z,30.03
2017-09-27T23:55:46.856Z,31.10
2017-09-27T23:58:14.426Z,30.03
